Boxy Lady — 9HYU9 — position and weather

sailwx.info

Track history (hours):
 
Tides and Currents Weather Stations Pressure Air Temp Water Temp Dewpoint Dewpoint Depression Visibility Wind Speed Wind Dir Waves Ship Positions

Boxy Lady

Last reported at 2017-Sep-20 19:49 UTC. Time now 2017-Sep-22 02:50 UTC.
Position N 36°08' W 005°26'.

Length 159 m; draft 10.3 m.

Type: Ship. MMSI: 249715000.

Date/timePositionNaut miles runAvg speedWind from/ knotsBaromVisibWave heightAir tempDewpointWater temp
2017-Sep-20 19:49N 36°08' W 005°26'2 0.1
2017-Sep-20 05:18N 36°09' W 005°25'0 0.1
2017-Sep-20 03:39N 36°10' W 005°25'0 0.0
2017-Sep-20 02:42N 36°10' W 005°25'0 0.0
2017-Sep-20 01:45N 36°10' W 005°25'0 0.1
2017-Sep-20 01:27N 36°10' W 005°25'0 0.1
2017-Sep-20 01:00N 36°10' W 005°25'0 0.2
2017-Sep-20 00:27N 36°10' W 005°25'0 0.0
2017-Sep-19 19:54N 36°09' W 005°25'0 0.0
2017-Sep-19 19:27N 36°09' W 005°25'0 0.0
2017-Sep-19 18:57N 36°09' W 005°25'0 0.0
2017-Sep-19 18:27N 36°09' W 005°25'0 0.0
2017-Sep-19 17:57N 36°09' W 005°25'0 0.0
2017-Sep-19 17:21N 36°09' W 005°25'0 0.0
2017-Sep-19 16:57N 36°10' W 005°25'0 0.0
2017-Sep-19 16:30N 36°09' W 005°25'0 0.0
2017-Sep-19 15:39N 36°10' W 005°25'0 0.1
2017-Sep-19 15:21N 36°10' W 005°25'1 0.0
2017-Sep-18 22:32N 36°09' W 005°25'1 4.3
2017-Sep-18 22:21N 36°09' W 005°24'2 6.8
2017-Sep-18 21:59N 36°06' W 005°23'4 8.2
2017-Sep-18 21:30N 36°02' W 005°23'510.8
2017-Sep-18 21:00N 35°58' W 005°27'17311.9
2017-Sep-18 06:32N 36°31' W 008°57'012.1
2017-Sep-18 06:30N 36°31' W 008°58'712.1
2017-Sep-18 05:57N 36°33' W 009°06'612.6
2017-Sep-18 05:28N 36°34' W 009°13'512.1
2017-Sep-18 05:01N 36°37' W 009°19'812.7
2017-Sep-18 04:25N 36°43' W 009°25'612.2
2017-Sep-18 03:57N 36°47' W 009°30'912.2
2017-Sep-18 03:14N 36°55' W 009°34'312.2
2017-Sep-18 03:00N 36°58' W 009°35'612.1
2017-Sep-18 02:30N 37°04' W 009°37'811.9
2017-Sep-18 01:50N 37°11' W 009°39'612.0
2017-Sep-18 01:21N 37°17' W 009°41'1311.6
2017-Sep-18 00:11N 37°30' W 009°45'211.5
2017-Sep-18 00:01N 37°32' W 009°45'811.5
2017-Sep-17 23:17N 37°40' W 009°48'411.7
2017-Sep-17 22:56N 37°44' W 009°49'611.6
2017-Sep-17 22:26N 37°50' W 009°50'511.8
2017-Sep-17 22:00N 37°55' W 009°52'611.7
2017-Sep-17 21:29N 38°01' W 009°53'611.9
2017-Sep-17 20:57N 38°07' W 009°55'512.0
2017-Sep-17 20:29N 38°12' W 009°57'611.9
2017-Sep-17 20:00N 38°18' W 009°58'612.0
2017-Sep-17 19:30N 38°24' W 009°60'612.5
2017-Sep-17 19:00N 38°30' W 010°01'712.9
2017-Sep-17 18:30N 38°36' W 010°03'612.7
2017-Sep-17 18:00N 38°43' W 010°04'612.6
2017-Sep-17 17:30N 38°49' W 010°05'612.3
2017-Sep-17 17:00N 38°55' W 010°05'612.6
2017-Sep-17 16:30N 39°01' W 010°05'612.7
2017-Sep-17 16:00N 39°08' W 010°05'612.3
2017-Sep-17 15:30N 39°14' W 010°05'611.8
2017-Sep-17 15:00N 39°20' W 010°05'1012.1
2017-Sep-17 14:12N 39°30' W 010°05'303 9.0
2017-Sep-16 04:38N 43°45' W 006°26'111.0
2017-Sep-16 04:30N 43°45' W 006°24'510.8
2017-Sep-16 04:00N 43°44' W 006°17'610.8
2017-Sep-16 03:29N 43°44' W 006°09'510.9
2017-Sep-16 03:00N 43°44' W 006°02'611.3
2017-Sep-16 02:31N 43°44' W 005°54'611.2
2017-Sep-16 02:01N 43°44' W 005°46'510.9
2017-Sep-16 01:30N 43°43' W 005°39'510.6
2017-Sep-16 01:00N 43°43' W 005°31'510.1
2017-Sep-16 00:31N 43°43' W 005°24'510.1
2017-Sep-16 00:01N 43°42' W 005°17'510.6
2017-Sep-15 23:31N 43°42' W 005°10'6512.3
2017-Sep-15 18:14N 43°35' W 003°41'312.9
2017-Sep-15 18:01N 43°34' W 003°37'612.8
2017-Sep-15 17:30N 43°34' W 003°28'612.5
2017-Sep-15 17:00N 43°31' W 003°20'612.9
2017-Sep-15 16:30N 43°28' W 003°13'612.2
2017-Sep-15 16:00N 43°24' W 003°06'4 7.5
2017-Sep-15 15:30N 43°21' W 003°03'0 0.8
2017-Sep-15 14:59N 43°21' W 003°03'0 0.0
2017-Sep-15 14:29N 43°21' W 003°03'0 0.0
2017-Sep-15 13:59N 43°21' W 003°03'0 0.0
2017-Sep-15 13:29N 43°21' W 003°03'0 0.0
2017-Sep-15 12:59N 43°21' W 003°03'0 0.0
2017-Sep-15 12:29N 43°21' W 003°03'0 0.0
2017-Sep-15 11:59N 43°21' W 003°03'0 0.0
2017-Sep-15 11:29N 43°21' W 003°03'0 0.0
2017-Sep-15 10:59N 43°21' W 003°03'0 0.0
2017-Sep-15 10:29N 43°21' W 003°03'0 0.0
2017-Sep-15 09:59N 43°21' W 003°03'0 0.0
2017-Sep-15 09:29N 43°21' W 003°03'0 0.0
2017-Sep-15 08:59N 43°21' W 003°03'0 0.0
2017-Sep-15 08:29N 43°21' W 003°03'0 0.0
2017-Sep-15 07:59N 43°21' W 003°03'0 0.0
2017-Sep-15 07:29N 43°21' W 003°03'0 0.0
2017-Sep-15 06:59N 43°21' W 003°03'0 0.0
2017-Sep-15 06:29N 43°21' W 003°03'0 0.0
2017-Sep-15 05:59N 43°21' W 003°03'0 0.0
2017-Sep-15 05:29N 43°21' W 003°03'0 0.0
2017-Sep-15 04:59N 43°21' W 003°03'0 0.0
2017-Sep-15 04:29N 43°21' W 003°03'0 0.0
2017-Sep-15 03:59N 43°21' W 003°03'0 0.0
2017-Sep-15 03:26N 43°21' W 003°03'0 0.0
2017-Sep-15 02:59N 43°21' W 003°03'0 0.0
2017-Sep-15 02:29N 43°21' W 003°03'0 0.0
2017-Sep-15 01:59N 43°21' W 003°03'0 0.0
2017-Sep-15 01:29N 43°21' W 003°03'0 0.0
2017-Sep-15 00:59N 43°21' W 003°03'0 0.0
2017-Sep-15 00:29N 43°21' W 003°03'0 0.0
2017-Sep-14 23:59N 43°21' W 003°03'0 0.0
2017-Sep-14 23:29N 43°21' W 003°03'0 0.0
2017-Sep-14 22:59N 43°21' W 003°03'0 0.0
2017-Sep-14 22:29N 43°21' W 003°03'0 0.0
2017-Sep-14 21:59N 43°21' W 003°03'0 0.0
2017-Sep-14 21:29N 43°21' W 003°03'0 0.0
2017-Sep-14 20:59N 43°21' W 003°03'0 0.0
2017-Sep-14 20:26N 43°21' W 003°03'0 0.0
2017-Sep-14 19:59N 43°21' W 003°03'0 0.0
2017-Sep-14 19:29N 43°21' W 003°03'0 0.0
2017-Sep-14 18:59N 43°21' W 003°03'0 0.0
2017-Sep-14 18:29N 43°21' W 003°03'0 0.0
2017-Sep-14 17:59N 43°21' W 003°03'0 0.0
2017-Sep-14 17:23N 43°21' W 003°03'0 0.0
2017-Sep-14 16:59N 43°21' W 003°03'0 0.0
2017-Sep-14 16:29N 43°21' W 003°03'0 0.0
2017-Sep-14 15:59N 43°21' W 003°03'0 0.0
2017-Sep-14 15:29N 43°21' W 003°03'0 0.0
2017-Sep-14 14:59N 43°21' W 003°03'0 0.0
2017-Sep-14 14:29N 43°21' W 003°03'0 0.0
2017-Sep-14 13:59N 43°21' W 003°03'0 0.0
2017-Sep-14 13:29N 43°21' W 003°03'0 0.0
2017-Sep-14 12:59N 43°21' W 003°03'0 0.0
2017-Sep-14 12:29N 43°21' W 003°03'0 0.0
2017-Sep-14 11:59N 43°21' W 003°03'0 0.0
2017-Sep-14 11:29N 43°21' W 003°03'0 0.0
2017-Sep-14 10:59N 43°21' W 003°03'78 1.7
2017-Sep-12 14:10N 43°39' W 004°47'312.5
2017-Sep-12 13:56N 43°39' W 004°51'612.8
2017-Sep-12 13:27N 43°40' W 004°59'613.0
2017-Sep-12 12:58N 43°40' W 005°08'813.7
2017-Sep-12 12:21N 43°41' W 005°19'614.2
2017-Sep-12 11:55N 43°42' W 005°28'714.2
2017-Sep-12 11:24N 43°43' W 005°38'614.1
2017-Sep-12 10:59N 43°44' W 005°46'714.2
2017-Sep-12 10:30N 43°44' W 005°55'814.6
2017-Sep-12 09:57N 43°44' W 006°06'  
Track history (hours):
 
Tides and Currents Weather Stations Pressure Air Temp Water Temp Dewpoint Dewpoint Depression Visibility Wind Speed Wind Dir Waves Ship Positions

Boxy Lady

Last reported at 2017-Sep-20 19:49 UTC. Time now 2017-Sep-22 02:50 UTC.
Position N 36°08' W 005°26'.

Length 159 m; draft 10.3 m.

Type: Ship. MMSI: 249715000.

Date/timePositionNaut miles runAvg speedWind from/ knotsBaromVisibWave heightAir tempDewpointWater temp
2017-Sep-20 19:49N 36°08' W 005°26'2 0.1
2017-Sep-20 05:18N 36°09' W 005°25'0 0.1
2017-Sep-20 03:39N 36°10' W 005°25'0 0.0
2017-Sep-20 02:42N 36°10' W 005°25'0 0.0
2017-Sep-20 01:45N 36°10' W 005°25'0 0.1
2017-Sep-20 01:27N 36°10' W 005°25'0 0.1
2017-Sep-20 01:00N 36°10' W 005°25'0 0.2
2017-Sep-20 00:27N 36°10' W 005°25'0 0.0
2017-Sep-19 19:54N 36°09' W 005°25'0 0.0
2017-Sep-19 19:27N 36°09' W 005°25'0 0.0
2017-Sep-19 18:57N 36°09' W 005°25'0 0.0
2017-Sep-19 18:27N 36°09' W 005°25'0 0.0
2017-Sep-19 17:57N 36°09' W 005°25'0 0.0
2017-Sep-19 17:21N 36°09' W 005°25'0 0.0
2017-Sep-19 16:57N 36°10' W 005°25'0 0.0
2017-Sep-19 16:30N 36°09' W 005°25'0 0.0
2017-Sep-19 15:39N 36°10' W 005°25'0 0.1
2017-Sep-19 15:21N 36°10' W 005°25'1 0.0
2017-Sep-18 22:32N 36°09' W 005°25'1 4.3
2017-Sep-18 22:21N 36°09' W 005°24'2 6.8
2017-Sep-18 21:59N 36°06' W 005°23'4 8.2
2017-Sep-18 21:30N 36°02' W 005°23'510.8
2017-Sep-18 21:00N 35°58' W 005°27'17311.9
2017-Sep-18 06:32N 36°31' W 008°57'012.1
2017-Sep-18 06:30N 36°31' W 008°58'712.1
2017-Sep-18 05:57N 36°33' W 009°06'612.6
2017-Sep-18 05:28N 36°34' W 009°13'512.1
2017-Sep-18 05:01N 36°37' W 009°19'812.7
2017-Sep-18 04:25N 36°43' W 009°25'612.2
2017-Sep-18 03:57N 36°47' W 009°30'912.2
2017-Sep-18 03:14N 36°55' W 009°34'312.2
2017-Sep-18 03:00N 36°58' W 009°35'612.1
2017-Sep-18 02:30N 37°04' W 009°37'811.9
2017-Sep-18 01:50N 37°11' W 009°39'612.0
2017-Sep-18 01:21N 37°17' W 009°41'1311.6
2017-Sep-18 00:11N 37°30' W 009°45'211.5
2017-Sep-18 00:01N 37°32' W 009°45'811.5
2017-Sep-17 23:17N 37°40' W 009°48'411.7
2017-Sep-17 22:56N 37°44' W 009°49'611.6
2017-Sep-17 22:26N 37°50' W 009°50'511.8
2017-Sep-17 22:00N 37°55' W 009°52'611.7
2017-Sep-17 21:29N 38°01' W 009°53'611.9
2017-Sep-17 20:57N 38°07' W 009°55'512.0
2017-Sep-17 20:29N 38°12' W 009°57'611.9
2017-Sep-17 20:00N 38°18' W 009°58'612.0
2017-Sep-17 19:30N 38°24' W 009°60'612.5
2017-Sep-17 19:00N 38°30' W 010°01'712.9
2017-Sep-17 18:30N 38°36' W 010°03'612.7
2017-Sep-17 18:00N 38°43' W 010°04'612.6
2017-Sep-17 17:30N 38°49' W 010°05'612.3
2017-Sep-17 17:00N 38°55' W 010°05'612.6
2017-Sep-17 16:30N 39°01' W 010°05'612.7
2017-Sep-17 16:00N 39°08' W 010°05'612.3
2017-Sep-17 15:30N 39°14' W 010°05'611.8
2017-Sep-17 15:00N 39°20' W 010°05'1012.1
2017-Sep-17 14:12N 39°30' W 010°05'303 9.0
2017-Sep-16 04:38N 43°45' W 006°26'111.0
2017-Sep-16 04:30N 43°45' W 006°24'510.8
2017-Sep-16 04:00N 43°44' W 006°17'610.8
2017-Sep-16 03:29N 43°44' W 006°09'510.9
2017-Sep-16 03:00N 43°44' W 006°02'611.3
2017-Sep-16 02:31N 43°44' W 005°54'611.2
2017-Sep-16 02:01N 43°44' W 005°46'510.9
2017-Sep-16 01:30N 43°43' W 005°39'510.6
2017-Sep-16 01:00N 43°43' W 005°31'510.1
2017-Sep-16 00:31N 43°43' W 005°24'510.1
2017-Sep-16 00:01N 43°42' W 005°17'510.6
2017-Sep-15 23:31N 43°42' W 005°10'6512.3
2017-Sep-15 18:14N 43°35' W 003°41'312.9
2017-Sep-15 18:01N 43°34' W 003°37'612.8
2017-Sep-15 17:30N 43°34' W 003°28'612.5
2017-Sep-15 17:00N 43°31' W 003°20'612.9
2017-Sep-15 16:30N 43°28' W 003°13'612.2
2017-Sep-15 16:00N 43°24' W 003°06'4 7.5
2017-Sep-15 15:30N 43°21' W 003°03'0 0.8
2017-Sep-15 14:59N 43°21' W 003°03'0 0.0
2017-Sep-15 14:29N 43°21' W 003°03'0 0.0
2017-Sep-15 13:59N 43°21' W 003°03'0 0.0
2017-Sep-15 13:29N 43°21' W 003°03'0 0.0
2017-Sep-15 12:59N 43°21' W 003°03'0 0.0
2017-Sep-15 12:29N 43°21' W 003°03'0 0.0
2017-Sep-15 11:59N 43°21' W 003°03'0 0.0
2017-Sep-15 11:29N 43°21' W 003°03'0 0.0
2017-Sep-15 10:59N 43°21' W 003°03'0 0.0
2017-Sep-15 10:29N 43°21' W 003°03'0 0.0
2017-Sep-15 09:59N 43°21' W 003°03'0 0.0
2017-Sep-15 09:29N 43°21' W 003°03'0 0.0
2017-Sep-15 08:59N 43°21' W 003°03'0 0.0
2017-Sep-15 08:29N 43°21' W 003°03'0 0.0
2017-Sep-15 07:59N 43°21' W 003°03'0 0.0
2017-Sep-15 07:29N 43°21' W 003°03'0 0.0
2017-Sep-15 06:59N 43°21' W 003°03'0 0.0
2017-Sep-15 06:29N 43°21' W 003°03'0 0.0
2017-Sep-15 05:59N 43°21' W 003°03'0 0.0
2017-Sep-15 05:29N 43°21' W 003°03'0 0.0
2017-Sep-15 04:59N 43°21' W 003°03'0 0.0
2017-Sep-15 04:29N 43°21' W 003°03'0 0.0
2017-Sep-15 03:59N 43°21' W 003°03'0 0.0
2017-Sep-15 03:26N 43°21' W 003°03'0 0.0
2017-Sep-15 02:59N 43°21' W 003°03'0 0.0
2017-Sep-15 02:29N 43°21' W 003°03'0 0.0
2017-Sep-15 01:59N 43°21' W 003°03'0 0.0
2017-Sep-15 01:29N 43°21' W 003°03'0 0.0
2017-Sep-15 00:59N 43°21' W 003°03'0 0.0
2017-Sep-15 00:29N 43°21' W 003°03'0 0.0
2017-Sep-14 23:59N 43°21' W 003°03'0 0.0
2017-Sep-14 23:29N 43°21' W 003°03'0 0.0
2017-Sep-14 22:59N 43°21' W 003°03'0 0.0
2017-Sep-14 22:29N 43°21' W 003°03'0 0.0
2017-Sep-14 21:59N 43°21' W 003°03'0 0.0
2017-Sep-14 21:29N 43°21' W 003°03'0 0.0
2017-Sep-14 20:59N 43°21' W 003°03'0 0.0
2017-Sep-14 20:26N 43°21' W 003°03'0 0.0
2017-Sep-14 19:59N 43°21' W 003°03'0 0.0
2017-Sep-14 19:29N 43°21' W 003°03'0 0.0
2017-Sep-14 18:59N 43°21' W 003°03'0 0.0
2017-Sep-14 18:29N 43°21' W 003°03'0 0.0
2017-Sep-14 17:59N 43°21' W 003°03'0 0.0
2017-Sep-14 17:23N 43°21' W 003°03'0 0.0
2017-Sep-14 16:59N 43°21' W 003°03'0 0.0
2017-Sep-14 16:29N 43°21' W 003°03'0 0.0
2017-Sep-14 15:59N 43°21' W 003°03'0 0.0
2017-Sep-14 15:29N 43°21' W 003°03'0 0.0
2017-Sep-14 14:59N 43°21' W 003°03'0 0.0
2017-Sep-14 14:29N 43°21' W 003°03'0 0.0
2017-Sep-14 13:59N 43°21' W 003°03'0 0.0
2017-Sep-14 13:29N 43°21' W 003°03'0 0.0
2017-Sep-14 12:59N 43°21' W 003°03'0 0.0
2017-Sep-14 12:29N 43°21' W 003°03'0 0.0
2017-Sep-14 11:59N 43°21' W 003°03'0 0.0
2017-Sep-14 11:29N 43°21' W 003°03'0 0.0
2017-Sep-14 10:59N 43°21' W 003°03'78 1.7
2017-Sep-12 14:10N 43°39' W 004°47'312.5
2017-Sep-12 13:56N 43°39' W 004°51'612.8
2017-Sep-12 13:27N 43°40' W 004°59'613.0
2017-Sep-12 12:58N 43°40' W 005°08'813.7
2017-Sep-12 12:21N 43°41' W 005°19'614.2
2017-Sep-12 11:55N 43°42' W 005°28'714.2
2017-Sep-12 11:24N 43°43' W 005°38'614.1
2017-Sep-12 10:59N 43°44' W 005°46'714.2
2017-Sep-12 10:30N 43°44' W 005°55'814.6
2017-Sep-12 09:57N 43°44' W 006°06'  

Dump ship's entire track history